Time;durP1;ratioP1;P1;durP2;ratioP2;P2;SDS_P1;SDS_P2;PMS_P1;PMS_P2;Temp;Humidity;BMP_temperature;BMP_pressure;BME280_temperature;BME280_humidity;BME280_pressure;Samples;Min_cycle;Max_cycle;Signal;HPM_P1;HPM_P2
2021/10/10 00:00:32;;;;;;;32.70;22.83;;;9.70;90.10;;;;;;5095739;28;20036;-76
2021/10/10 00:02:57;;;;;;;32.40;22.42;;;9.70;90.00;;;;;;5111242;28;20032;-76
2021/10/10 00:05:23;;;;;;;32.20;21.25;;;9.70;90.00;;;;;;5113233;28;20055;-77
2021/10/10 00:07:48;;;;;;;33.88;23.35;;;9.70;90.00;;;;;;5113121;28;20031;-77
2021/10/10 00:10:15;;;;;;;35.53;23.42;;;9.60;90.00;;;;;;5113316;28;20028;-77
2021/10/10 00:12:42;;;;;;;32.85;23.27;;;9.60;90.00;;;;;;5113150;28;20019;-76
2021/10/10 00:15:10;;;;;;;32.08;21.95;;;9.50;90.00;;;;;;5113107;28;20495;-76
2021/10/10 00:17:35;;;;;;;34.72;22.92;;;9.50;90.00;;;;;;5113067;28;20102;-76
2021/10/10 00:20:03;;;;;;;34.33;23.27;;;9.50;90.00;;;;;;5112908;28;20106;-76
2021/10/10 00:22:28;;;;;;;37.92;24.25;;;9.50;90.00;;;;;;5111297;28;20106;-76
2021/10/10 00:24:54;;;;;;;38.25;24.95;;;9.50;90.00;;;;;;5112703;28;20111;-77
2021/10/10 00:27:21;;;;;;;33.95;23.25;;;9.40;90.10;;;;;;5111523;28;20487;-76
2021/10/10 00:29:47;;;;;;;36.75;24.02;;;9.40;90.10;;;;;;5111480;28;20070;-76
2021/10/10 00:32:12;;;;;;;38.58;23.13;;;9.30;90.20;;;;;;5094102;28;20064;-76
2021/10/10 00:34:38;;;;;;;35.45;24.00;;;9.30;90.20;;;;;;5093657;28;20472;-77
2021/10/10 00:37:04;;;;;;;35.33;24.17;;;9.30;90.20;;;;;;5102548;28;20021;-76
2021/10/10 00:39:30;;;;;;;31.90;22.60;;;9.30;90.20;;;;;;5110615;28;20072;-76
2021/10/10 00:41:55;;;;;;;37.92;22.50;;;9.30;90.10;;;;;;5096798;28;20021;-76
2021/10/10 00:44:21;;;;;;;37.38;23.40;;;9.20;90.10;;;;;;5111504;28;20038;-76
2021/10/10 00:46:46;;;;;;;33.85;23.58;;;9.20;90.10;;;;;;5111036;28;20047;-76
2021/10/10 00:49:12;;;;;;;38.10;23.67;;;9.20;90.00;;;;;;5093642;28;20161;-76
2021/10/10 00:51:41;;;;;;;37.25;23.63;;;9.20;90.00;;;;;;5111644;28;20031;-76
2021/10/10 00:54:08;;;;;;;;;;;9.10;90.10;;;;;;5110556;28;20535;-77
2021/10/10 00:56:36;;;;;;;36.55;22.02;;;9.10;90.10;;;;;;5132629;27;19923;-76
2021/10/10 00:59:03;;;;;;;35.95;22.38;;;9.00;90.20;;;;;;5110099;28;20035;-76
2021/10/10 01:01:30;;;;;;;31.75;21.52;;;9.00;90.20;;;;;;5110590;28;20023;-76
2021/10/10 01:03:56;;;;;;;38.40;22.17;;;8.90;90.20;;;;;;5110546;28;20484;-76
2021/10/10 01:06:22;;;;;;;32.53;21.65;;;9.00;90.20;;;;;;5110441;28;20046;-77
2021/10/10 01:08:49;;;;;;;32.38;21.40;;;8.90;90.20;;;;;;5108623;28;20034;-76
2021/10/10 01:11:16;;;;;;;32.95;22.15;;;8.90;90.20;;;;;;5110366;28;20019;-76
2021/10/10 01:13:42;;;;;;;30.23;20.98;;;8.90;90.10;;;;;;5110085;28;20031;-76
2021/10/10 01:16:08;;;;;;;33.40;21.77;;;8.90;90.10;;;;;;5091982;28;20039;-77
2021/10/10 01:18:34;;;;;;;35.58;24.52;;;8.80;90.10;;;;;;5108325;28;20035;-76
2021/10/10 01:20:59;;;;;;;33.88;22.48;;;8.80;90.20;;;;;;5109746;28;20039;-76
2021/10/10 01:23:25;;;;;;;30.98;21.83;;;8.80;90.20;;;;;;5109314;28;20036;-76
2021/10/10 01:25:51;;;;;;;29.83;22.02;;;8.70;90.20;;;;;;5109829;28;20041;-76
2021/10/10 01:28:17;;;;;;;33.80;21.95;;;8.70;90.20;;;;;;5111398;28;20031;-76
2021/10/10 01:30:44;;;;;;;41.45;23.67;;;8.70;90.10;;;;;;5103315;28;20522;-76
2021/10/10 01:33:12;;;;;;;31.52;21.92;;;8.70;90.10;;;;;;5029853;28;20033;-77
2021/10/10 01:35:39;;;;;;;34.28;22.05;;;8.60;90.10;;;;;;5041966;28;21609;-76
2021/10/10 01:38:06;;;;;;;33.13;21.90;;;8.60;90.20;;;;;;5042524;28;20123;-76
2021/10/10 01:40:34;;;;;;;30.63;21.95;;;8.60;90.30;;;;;;5025003;28;20078;-76
2021/10/10 01:43:02;;;;;;;32.92;21.08;;;8.60;90.30;;;;;;5048115;28;20043;-76
2021/10/10 01:45:28;;;;;;;33.25;21.45;;;8.60;90.30;;;;;;5048079;28;20044;-76
2021/10/10 01:47:54;;;;;;;33.63;20.65;;;8.50;90.20;;;;;;5034739;28;20037;-76
2021/10/10 01:50:19;;;;;;;33.63;21.13;;;8.50;90.20;;;;;;5029057;28;20508;-76
2021/10/10 01:52:46;;;;;;;31.15;20.80;;;8.50;90.10;;;;;;5029071;28;20488;-76
2021/10/10 01:55:12;;;;;;;31.20;20.70;;;8.50;90.10;;;;;;5047269;28;20029;-76
2021/10/10 01:57:38;;;;;;;30.23;20.85;;;8.50;90.10;;;;;;5029729;28;20530;-77
2021/10/10 02:00:05;;;;;;;29.05;20.30;;;8.50;90.10;;;;;;5047091;28;20120;-77
2021/10/10 02:02:31;;;;;;;34.30;19.85;;;8.40;90.10;;;;;;5029647;28;20059;-76
2021/10/10 02:04:57;;;;;;;33.33;20.10;;;8.40;90.10;;;;;;5041307;28;20049;-76
2021/10/10 02:07:22;;;;;;;31.88;21.55;;;8.40;90.10;;;;;;5029421;28;20059;-77
2021/10/10 02:09:48;;;;;;;34.80;19.42;;;8.30;90.10;;;;;;5029538;28;20029;-76
2021/10/10 02:12:14;;;;;;;27.92;18.80;;;8.30;90.10;;;;;;5029624;28;20033;-76
2021/10/10 02:14:39;;;;;;;31.33;19.00;;;8.30;90.10;;;;;;5046913;28;20038;-76
2021/10/10 02:17:05;;;;;;;25.58;17.98;;;8.30;90.20;;;;;;5029516;28;20033;-76
2021/10/10 02:19:31;;;;;;;31.88;17.83;;;8.30;90.20;;;;;;5027440;28;20033;-76
2021/10/10 02:21:57;;;;;;;33.72;20.63;;;8.40;90.20;;;;;;5029618;28;20080;-76
2021/10/10 02:24:24;;;;;;;31.23;19.67;;;8.30;90.10;;;;;;5029415;28;20057;-76
2021/10/10 02:26:49;;;;;;;29.45;20.30;;;8.20;90.10;;;;;;5027188;28;20107;-76
2021/10/10 02:29:15;;;;;;;25.83;17.65;;;8.20;90.20;;;;;;5046965;28;20148;-76
2021/10/10 02:31:43;;;;;;;25.33;18.60;;;8.20;90.30;;;;;;5029293;28;20097;-76
2021/10/10 02:34:10;;;;;;;24.27;18.00;;;8.20;90.50;;;;;;5014656;28;20029;-76
2021/10/10 02:36:36;;;;;;;34.50;18.40;;;8.20;90.20;;;;;;5046986;28;20025;-76
2021/10/10 02:39:02;;;;;;;24.77;16.52;;;8.20;90.20;;;;;;5047351;28;20504;-76
2021/10/10 02:41:28;;;;;;;28.55;18.02;;;8.10;90.20;;;;;;5028136;28;20036;-77
2021/10/10 02:43:54;;;;;;;28.17;19.70;;;8.10;90.20;;;;;;5028283;28;20025;-76
2021/10/10 02:46:19;;;;;;;28.80;18.35;;;8.10;90.10;;;;;;5046334;28;20065;-77
2021/10/10 02:48:45;;;;;;;28.17;19.00;;;8.10;90.10;;;;;;5028570;28;20071;-76
2021/10/10 02:51:10;;;;;;;29.02;18.25;;;8.00;90.10;;;;;;5045394;28;20089;-77
2021/10/10 02:53:36;;;;;;;27.98;18.33;;;8.00;90.10;;;;;;5028222;28;20041;-77
2021/10/10 02:56:01;;;;;;;27.08;17.90;;;8.00;90.10;;;;;;5045860;28;20037;-77
2021/10/10 02:58:29;;;;;;;31.10;18.02;;;8.00;90.10;;;;;;5042369;28;20025;-76
2021/10/10 03:00:55;;;;;;;30.05;19.42;;;8.00;90.20;;;;;;5045472;28;20040;-76
2021/10/10 03:03:20;;;;;;;27.67;17.55;;;8.00;90.00;;;;;;5047812;28;20033;-76
2021/10/10 03:05:46;;;;;;;26.95;18.27;;;7.90;90.10;;;;;;5016154;28;20031;-76
2021/10/10 03:08:12;;;;;;;28.58;17.67;;;7.90;90.20;;;;;;5050123;28;20398;-76
2021/10/10 03:10:37;;;;;;;28.13;16.77;;;7.90;90.20;;;;;;5032052;28;20067;-76
2021/10/10 03:13:03;;;;;;;25.60;16.20;;;7.90;90.20;;;;;;5042217;28;20029;-76
2021/10/10 03:15:29;;;;;;;30.65;18.05;;;7.90;90.20;;;;;;5026595;28;20604;-76
2021/10/10 03:17:54;;;;;;;26.17;17.33;;;7.90;90.20;;;;;;5055706;28;20037;-77
2021/10/10 03:20:20;;;;;;;31.98;16.92;;;7.80;90.10;;;;;;5029506;28;20089;-76
2021/10/10 03:22:46;;;;;;;27.65;18.08;;;7.80;90.10;;;;;;5050178;28;20080;-76
2021/10/10 03:25:11;;;;;;;30.20;18.38;;;7.80;90.10;;;;;;5049707;28;20117;-76
2021/10/10 03:27:37;;;;;;;27.73;17.75;;;7.80;90.10;;;;;;5015618;28;20189;-76
2021/10/10 03:30:03;;;;;;;29.85;17.65;;;7.70;90.20;;;;;;5049944;28;20114;-76
2021/10/10 03:32:29;;;;;;;28.92;18.33;;;7.70;90.20;;;;;;5049982;28;20165;-76
2021/10/10 03:34:54;;;;;;;36.90;21.45;;;7.70;90.20;;;;;;5049906;28;20025;-76
2021/10/10 03:37:20;;;;;;;25.73;18.67;;;7.70;90.30;;;;;;5032001;28;20037;-76
2021/10/10 03:39:46;;;;;;;32.00;19.38;;;7.70;90.40;;;;;;5031919;28;20690;-76
2021/10/10 03:42:11;;;;;;;33.30;21.00;;;7.60;90.50;;;;;;5015234;28;20037;-76
2021/10/10 03:44:37;;;;;;;32.05;20.40;;;7.70;90.50;;;;;;5031932;28;20033;-76
2021/10/10 03:47:03;;;;;;;28.95;19.35;;;7.60;90.50;;;;;;5015460;28;20037;-76
2021/10/10 03:49:28;;;;;;;33.70;22.80;;;7.60;90.50;;;;;;5031707;28;20033;-76
2021/10/10 03:51:55;;;;;;;40.63;20.48;;;7.60;90.60;;;;;;5032176;28;20037;-76
2021/10/10 03:56:49;;;;;;;37.13;21.50;;;7.60;90.60;;;;;;5049722;28;20151;-76
2021/10/10 03:59:15;;;;;;;38.72;21.95;;;7.70;90.60;;;;;;5049548;28;20485;-76
2021/10/10 04:01:42;;;;;;;35.63;21.90;;;7.60;90.60;;;;;;5049448;28;20062;-76
2021/10/10 04:04:07;;;;;;;35.88;20.95;;;7.60;90.70;;;;;;5010521;28;20029;-76
2021/10/10 04:06:33;;;;;;;39.55;22.75;;;7.60;90.70;;;;;;5049176;28;20037;-76
2021/10/10 04:08:59;;;;;;;35.42;20.63;;;7.60;91.00;;;;;;5042338;28;20061;-76
2021/10/10 04:11:25;;;;;;;31.60;20.08;;;7.60;90.70;;;;;;5048798;28;20478;-76
2021/10/10 04:13:50;;;;;;;36.20;21.27;;;7.60;90.70;;;;;;5049156;28;20074;-76
2021/10/10 04:16:16;;;;;;;38.47;21.25;;;7.60;90.70;;;;;;5048657;28;20039;-76
2021/10/10 04:18:42;;;;;;;32.80;19.92;;;7.60;90.80;;;;;;5049109;28;20114;-76
2021/10/10 04:21:07;;;;;;;40.33;21.58;;;7.60;90.80;;;;;;5048926;28;20040;-76
2021/10/10 04:23:33;;;;;;;35.58;20.25;;;7.60;90.80;;;;;;5014705;28;20033;-76
2021/10/10 04:25:59;;;;;;;32.53;20.50;;;7.60;90.80;;;;;;5048750;28;20029;-76
2021/10/10 04:28:26;;;;;;;31.95;20.33;;;7.60;90.80;;;;;;5050196;28;20508;-76
2021/10/10 04:30:52;;;;;;;37.50;22.80;;;7.60;90.70;;;;;;5030597;28;20049;-77
2021/10/10 04:33:17;;;;;;;32.97;19.92;;;7.60;90.80;;;;;;5031621;28;20029;-76
2021/10/10 04:35:43;;;;;;;31.88;19.63;;;7.50;90.80;;;;;;5031231;28;20582;-76
2021/10/10 04:38:10;;;;;;;33.60;21.10;;;7.60;90.80;;;;;;5048935;28;20025;-76
2021/10/10 04:40:36;;;;;;;33.40;20.42;;;7.50;90.80;;;;;;5048565;28;20036;-76
2021/10/10 04:43:06;;;;;;;33.78;20.77;;;7.50;90.90;;;;;;5030896;28;20033;-77
2021/10/10 04:45:32;;;;;;;35.08;20.58;;;7.40;91.00;;;;;;5048805;28;21578;-76
2021/10/10 04:47:58;;;;;;;33.60;20.33;;;7.40;91.00;;;;;;5048701;28;20052;-77
2021/10/10 04:50:23;;;;;;;28.80;19.60;;;7.40;91.20;;;;;;5014006;28;20556;-76
2021/10/10 04:52:49;;;;;;;30.40;21.05;;;7.40;91.20;;;;;;5048551;28;20021;-76
2021/10/10 04:55:15;;;;;;;35.17;20.92;;;7.40;90.90;;;;;;5014016;28;20021;-76
2021/10/10 04:57:40;;;;;;;40.47;19.83;;;7.30;90.90;;;;;;5048484;28;20081;-76
2021/10/10 05:00:07;;;;;;;34.97;20.98;;;7.40;90.90;;;;;;5030263;28;20412;-76
2021/10/10 05:02:32;;;;;;;34.47;21.38;;;7.30;91.10;;;;;;5048080;28;20025;-76
2021/10/10 05:04:58;;;;;;;32.63;20.65;;;7.30;90.90;;;;;;5039223;28;20811;-76
2021/10/10 05:07:24;;;;;;;34.03;19.83;;;7.40;90.90;;;;;;5048515;28;20538;-76
2021/10/10 05:09:50;;;;;;;35.72;20.83;;;7.40;91.20;;;;;;5047523;28;20027;-76
2021/10/10 05:12:15;;;;;;;39.60;22.90;;;7.40;90.90;;;;;;5029869;28;20045;-76
2021/10/10 05:14:43;;;;;;;37.50;21.58;;;7.40;90.90;;;;;;5013198;28;20036;-76
2021/10/10 05:17:08;;;;;;;36.97;21.38;;;7.40;91.00;;;;;;5046722;28;20040;-76
2021/10/10 05:19:35;;;;;;;40.28;22.33;;;7.40;91.00;;;;;;5041939;28;20021;-76
2021/10/10 05:22:01;;;;;;;39.90;22.48;;;7.40;91.00;;;;;;5044326;28;20501;-76
2021/10/10 05:24:26;;;;;;;47.20;24.10;;;7.40;91.10;;;;;;5029416;28;20033;-76
2021/10/10 05:26:52;;;;;;;44.67;23.98;;;7.40;91.10;;;;;;5028705;28;20073;-76
2021/10/10 05:29:18;;;;;;;31.02;20.83;;;7.40;91.10;;;;;;5046838;28;20046;-76
2021/10/10 05:31:43;;;;;;;33.55;20.02;;;7.30;91.20;;;;;;5011695;28;20102;-76
2021/10/10 05:34:09;;;;;;;36.67;20.42;;;7.40;91.30;;;;;;5009830;28;20690;-76
2021/10/10 05:36:35;;;;;;;37.45;22.30;;;7.30;91.20;;;;;;5047187;28;20052;-76
2021/10/10 05:39:00;;;;;;;40.22;22.65;;;7.30;91.20;;;;;;5048086;28;20089;-76
2021/10/10 05:41:26;;;;;;;37.42;21.98;;;7.30;91.20;;;;;;5026536;28;20081;-76
2021/10/10 05:43:52;;;;;;;35.17;20.45;;;7.20;91.20;;;;;;5009797;28;20037;-76
2021/10/10 05:46:17;;;;;;;36.67;20.42;;;7.20;91.30;;;;;;5037053;28;20049;-76
2021/10/10 05:48:43;;;;;;;36.38;21.65;;;7.20;91.30;;;;;;5028312;28;20088;-76
2021/10/10 05:51:08;;;;;;;35.08;21.27;;;7.20;91.20;;;;;;5045965;28;20033;-76
2021/10/10 05:53:36;;;;;;;35.47;20.35;;;7.10;91.30;;;;;;5029414;28;20499;-77
2021/10/10 05:56:03;;;;;;;40.47;21.55;;;7.10;91.30;;;;;;5026490;28;20040;-76
2021/10/10 05:58:31;;;;;;;35.75;19.98;;;7.10;91.30;;;;;;5013267;28;20565;-76
2021/10/10 06:00:57;;;;;;;34.97;19.57;;;7.10;91.30;;;;;;5045796;28;20047;-76
2021/10/10 06:03:23;;;;;;;38.45;21.42;;;7.10;91.30;;;;;;5047695;28;20049;-76
2021/10/10 06:05:49;;;;;;;31.08;19.88;;;7.10;91.20;;;;;;5029585;28;20036;-76
2021/10/10 06:08:14;;;;;;;36.72;19.67;;;7.10;91.20;;;;;;5041660;28;20097;-76
2021/10/10 06:10:41;;;;;;;35.30;20.30;;;7.10;91.20;;;;;;5046643;28;20044;-75
2021/10/10 06:13:07;;;;;;;36.28;20.42;;;7.10;91.20;;;;;;5045210;28;20021;-76
2021/10/10 06:15:33;;;;;;;42.83;20.77;;;7.10;91.20;;;;;;5047354;28;20112;-76
2021/10/10 06:18:00;;;;;;;37.13;21.40;;;7.10;91.20;;;;;;5046928;28;20111;-76
2021/10/10 06:20:25;;;;;;;36.17;21.20;;;7.10;91.20;;;;;;5046809;28;20040;-76
2021/10/10 06:22:51;;;;;;;32.38;18.30;;;7.10;91.10;;;;;;5029110;28;20040;-76
2021/10/10 06:25:17;;;;;;;36.78;21.77;;;7.10;91.10;;;;;;5029271;28;20036;-76
2021/10/10 06:27:42;;;;;;;37.97;22.10;;;7.20;91.20;;;;;;5046287;28;20025;-76
2021/10/10 06:30:08;;;;;;;38.50;21.75;;;7.20;91.10;;;;;;5043964;28;20037;-76
2021/10/10 06:32:34;;;;;;;41.08;21.40;;;7.20;91.10;;;;;;5045507;28;20049;-76
2021/10/10 06:34:59;;;;;;;37.28;21.05;;;7.20;91.10;;;;;;5012315;28;20040;-76
2021/10/10 06:37:25;;;;;;;33.55;20.60;;;7.20;91.10;;;;;;5012609;28;20033;-76
2021/10/10 06:39:51;;;;;;;36.97;20.40;;;7.30;91.20;;;;;;5050288;28;20025;-76
2021/10/10 06:42:17;;;;;;;38.25;20.70;;;7.30;91.20;;;;;;5049459;28;20033;-76
2021/10/10 06:44:43;;;;;;;32.58;20.27;;;7.40;91.20;;;;;;5031332;28;20097;-76
2021/10/10 06:47:08;;;;;;;32.67;19.23;;;7.40;91.20;;;;;;5045130;28;20109;-76
2021/10/10 06:49:34;;;;;;;40.13;23.92;;;7.50;91.20;;;;;;5032283;28;20140;-76
2021/10/10 06:52:00;;;;;;;38.75;21.85;;;7.50;91.20;;;;;;5032547;28;20538;-76
2021/10/10 06:54:25;;;;;;;35.95;21.95;;;7.50;91.20;;;;;;5032593;28;20048;-76
2021/10/10 06:56:51;;;;;;;35.35;21.77;;;7.60;91.30;;;;;;5037805;28;20499;-76
2021/10/10 06:59:17;;;;;;;43.45;24.65;;;7.60;91.30;;;;;;5116059;27;20505;-76
2021/10/10 07:01:44;;;;;;;47.58;26.05;;;7.60;91.30;;;;;;5019235;28;20045;-76
2021/10/10 07:04:10;;;;;;;50.88;25.60;;;7.70;91.30;;;;;;5010592;28;20030;-76
2021/10/10 07:06:35;;;;;;;44.88;25.10;;;7.80;91.30;;;;;;5043073;28;20377;-76
2021/10/10 07:09:01;;;;;;;46.00;26.92;;;7.80;91.30;;;;;;5030407;28;20029;-76
2021/10/10 07:11:27;;;;;;;37.33;22.13;;;7.90;91.30;;;;;;5060815;28;20430;-76
2021/10/10 07:13:53;;;;;;;32.13;19.33;;;8.00;91.30;;;;;;5049947;28;20116;-76
2021/10/10 07:16:25;;;;;;;35.20;20.73;;;8.10;91.30;;;;;;5049065;28;20048;-76
2021/10/10 07:18:52;;;;;;;28.77;19.40;;;8.20;91.20;;;;;;5051821;28;20029;-76
2021/10/10 07:21:26;;;;;;;29.90;18.33;;;8.20;91.10;;;;;;5022390;28;20489;-76
2021/10/10 07:26:19;;;;;;;32.10;19.08;;;8.30;91.00;;;;;;5048721;28;20033;-76
2021/10/10 07:28:45;;;;;;;28.98;18.65;;;8.30;91.00;;;;;;5030775;28;20104;-76
2021/10/10 07:31:10;;;;;;;28.10;17.42;;;8.30;91.10;;;;;;5048815;28;20124;-77
2021/10/10 07:33:36;;;;;;;27.25;19.02;;;8.30;91.10;;;;;;5011347;28;20041;-76
2021/10/10 07:36:02;;;;;;;25.33;18.10;;;8.30;91.00;;;;;;5048432;28;20034;-77
2021/10/10 07:38:27;;;;;;;22.13;17.08;;;8.30;91.10;;;;;;5049595;28;20029;-77
2021/10/10 07:40:53;;;;;;;25.83;18.05;;;8.30;91.10;;;;;;5029103;28;20114;-76
2021/10/10 07:43:21;;;;;;;26.50;17.63;;;8.30;91.10;;;;;;5044588;28;20024;-76
2021/10/10 07:45:47;;;;;;;30.00;19.35;;;8.40;91.10;;;;;;5030619;28;20026;-75
2021/10/10 07:48:13;;;;;;;36.55;22.88;;;8.50;91.00;;;;;;5022868;28;20060;-76
2021/10/10 07:50:41;;;;;;;38.45;24.08;;;8.60;91.00;;;;;;5030055;28;20024;-76
2021/10/10 07:53:07;;;;;;;35.40;22.05;;;8.80;90.90;;;;;;5048328;28;20488;-75
2021/10/10 07:55:34;;;;;;;29.02;19.98;;;8.90;90.80;;;;;;5030186;28;20029;-75
2021/10/10 07:57:59;;;;;;;34.88;21.20;;;9.00;90.80;;;;;;5057334;27;20029;-76
2021/10/10 08:00:28;;;;;;;27.05;18.88;;;9.10;90.70;;;;;;5032786;28;20022;-75
2021/10/10 08:02:56;;;;;;;30.33;19.58;;;9.30;90.60;;;;;;5055790;27;20424;-74
2021/10/10 08:05:25;;;;;;;33.65;20.23;;;9.40;90.40;;;;;;5049178;28;20035;-74
2021/10/10 08:07:52;;;;;;;25.42;18.75;;;9.60;90.40;;;;;;5043922;28;20033;-74
2021/10/10 08:10:18;;;;;;;29.52;18.98;;;9.70;90.40;;;;;;5043885;28;20363;-74
2021/10/10 08:12:44;;;;;;;28.13;17.92;;;9.80;90.30;;;;;;5072321;27;20385;-74
2021/10/10 08:15:10;;;;;;;31.30;21.13;;;9.90;90.20;;;;;;5014129;28;20041;-74
2021/10/10 08:17:36;;;;;;;25.55;18.38;;;10.10;90.30;;;;;;5036595;28;20164;-74
2021/10/10 08:20:04;;;;;;;32.10;22.83;;;10.20;90.30;;;;;;5049227;28;20053;-75
2021/10/10 08:22:33;;;;;;;36.63;23.77;;;10.30;90.20;;;;;;5040463;28;20117;-74
2021/10/10 08:24:58;;;;;;;;;;;10.40;90.20;;;;;;5033324;28;20541;-75
2021/10/10 08:27:24;;;;;;;30.55;22.25;;;10.50;90.20;;;;;;5049240;28;19916;-74
2021/10/10 08:29:49;;;;;;;34.47;24.42;;;10.60;90.30;;;;;;5044656;28;20032;-74
2021/10/10 08:32:15;;;;;;;33.47;20.23;;;10.60;90.20;;;;;;5048441;28;20549;-74
2021/10/10 08:34:41;;;;;;;34.88;25.48;;;10.70;90.20;;;;;;5015066;28;20086;-75
2021/10/10 08:37:06;;;;;;;33.97;23.50;;;10.80;90.20;;;;;;5055960;28;20032;-74
2021/10/10 08:39:32;;;;;;;43.00;25.63;;;11.00;90.20;;;;;;5041025;28;20449;-74
2021/10/10 08:42:00;;;;;;;42.80;28.63;;;11.10;90.10;;;;;;5046701;28;20425;-74
2021/10/10 08:44:33;;;;;;;47.45;28.73;;;11.10;90.10;;;;;;5028002;28;20030;-74
2021/10/10 08:47:05;;;;;;;48.67;30.73;;;11.20;90.20;;;;;;5019587;28;20033;-74
2021/10/10 08:49:31;;;;;;;55.90;35.67;;;11.20;90.20;;;;;;5013302;28;20029;-74
2021/10/10 08:51:56;;;;;;;50.88;32.65;;;11.30;90.20;;;;;;5028181;28;20039;-74
2021/10/10 08:54:22;;;;;;;54.13;35.78;;;11.30;90.20;;;;;;5010859;28;20075;-74
2021/10/10 08:56:50;;;;;;;54.50;34.58;;;11.40;90.50;;;;;;5031505;28;20083;-76
2021/10/10 08:59:19;;;;;;;61.90;37.53;;;11.50;90.10;;;;;;5026248;28;20031;-76
2021/10/10 09:01:45;;;;;;;53.67;34.67;;;11.40;90.10;;;;;;5028594;28;20511;-75
2021/10/10 09:04:11;;;;;;;59.55;36.22;;;11.30;90.20;;;;;;5040176;28;20069;-75
2021/10/10 09:06:40;;;;;;;57.38;36.65;;;11.30;90.20;;;;;;5059702;27;20214;-76
2021/10/10 09:09:31;;;;;;;55.85;33.40;;;11.30;90.20;;;;;;5050239;28;20037;-76
2021/10/10 09:12:12;;;;;;;56.75;36.38;;;11.50;90.30;;;;;;5043623;28;20133;-76
2021/10/10 09:15:06;;;;;;;59.05;36.22;;;11.60;90.20;;;;;;5050470;28;20013;-76
2021/10/10 09:17:32;;;;;;;64.53;40.50;;;11.70;90.10;;;;;;5042693;28;20033;-76
2021/10/10 09:20:03;;;;;;;58.13;37.30;;;11.70;90.00;;;;;;5048025;28;20052;-76
2021/10/10 09:22:29;;;;;;;64.20;40.30;;;11.80;90.10;;;;;;5033734;28;20043;-76
2021/10/10 09:24:56;;;;;;;67.30;41.83;;;11.80;90.00;;;;;;5016327;28;20041;-76
2021/10/10 09:27:26;;;;;;;68.05;40.05;;;11.90;90.00;;;;;;5033452;28;20389;-76
2021/10/10 09:29:53;;;;;;;64.50;42.00;;;12.00;90.10;;;;;;5050629;28;20469;-76
2021/10/10 09:32:26;;;;;;;59.13;39.70;;;12.10;90.10;;;;;;5050738;28;20497;-76
2021/10/10 09:34:51;;;;;;;57.70;39.00;;;12.30;90.00;;;;;;5050791;28;20784;-76
2021/10/10 09:40:12;;;;;;;63.50;39.92;;;12.50;89.70;;;;;;5039568;28;20054;-76
2021/10/10 09:42:44;;;;;;;66.40;41.55;;;12.60;89.60;;;;;;5026488;28;20031;-76
2021/10/10 09:45:40;;;;;;;59.55;38.90;;;12.80;89.50;;;;;;5024404;28;20069;-76
2021/10/10 09:48:06;;;;;;;61.15;40.33;;;12.90;89.40;;;;;;5024206;28;20029;-76
2021/10/10 09:50:33;;;;;;;59.85;39.70;;;12.90;89.10;;;;;;5041237;28;20476;-76
2021/10/10 09:53:00;;;;;;;73.18;45.50;;;13.00;89.10;;;;;;5019176;28;20022;-76
2021/10/10 09:55:28;;;;;;;74.72;47.30;;;13.10;88.90;;;;;;5052145;28;20036;-76
2021/10/10 09:57:54;;;;;;;75.10;48.92;;;13.20;88.80;;;;;;5027470;28;20017;-76
2021/10/10 10:00:31;;;;;;;85.53;51.42;;;13.30;88.30;;;;;;5053554;28;20548;-76
2021/10/10 10:03:09;;;;;;;78.57;50.38;;;13.50;88.10;;;;;;5027366;28;20021;-76
2021/10/10 10:05:36;;;;;;;76.87;49.37;;;13.60;87.90;;;;;;5016520;28;20044;-76
2021/10/10 10:08:02;;;;;;;75.60;49.00;;;13.50;87.70;;;;;;5024334;28;20409;-76
2021/10/10 10:10:30;;;;;;;80.18;50.33;;;13.60;87.70;;;;;;5066349;27;20030;-76
2021/10/10 10:12:58;;;;;;;77.35;49.15;;;13.70;87.60;;;;;;5017280;28;20033;-76
2021/10/10 10:15:27;;;;;;;85.07;50.70;;;13.80;87.40;;;;;;5014690;28;20086;-78
2021/10/10 10:17:57;;;;;;;84.63;50.50;;;13.90;87.10;;;;;;5011414;28;20097;-76
2021/10/10 10:20:24;;;;;;;77.20;48.95;;;14.00;87.00;;;;;;5048608;28;20057;-76
2021/10/10 10:22:52;;;;;;;76.47;49.95;;;14.10;87.00;;;;;;5049793;28;20053;-77
2021/10/10 10:25:19;;;;;;;75.28;47.70;;;14.20;86.90;;;;;;5048834;28;20022;-77
2021/10/10 10:27:44;;;;;;;79.60;48.92;;;14.30;86.70;;;;;;5013607;28;20025;-77
2021/10/10 10:30:11;;;;;;;81.38;50.63;;;14.30;86.50;;;;;;5016756;28;20085;-76
2021/10/10 10:32:37;;;;;;;74.72;46.88;;;14.40;86.50;;;;;;5013458;28;20054;-76
2021/10/10 10:35:18;;;;;;;74.22;48.05;;;14.40;86.60;;;;;;5053662;28;20030;-76
2021/10/10 10:37:44;;;;;;;73.50;48.72;;;14.50;86.40;;;;;;5025009;28;20026;-76
2021/10/10 10:40:18;;;;;;;79.35;48.47;;;14.50;86.40;;;;;;5024980;28;20014;-76
2021/10/10 10:42:45;;;;;;;76.35;49.70;;;14.50;86.50;;;;;;5016136;28;20468;-76
2021/10/10 10:45:26;;;;;;;77.88;49.22;;;14.40;86.40;;;;;;5015548;28;20025;-76
2021/10/10 10:47:54;;;;;;;78.20;49.85;;;14.30;86.60;;;;;;5036798;28;20023;-76
2021/10/10 10:50:25;;;;;;;74.55;48.30;;;14.20;86.80;;;;;;5020639;28;20026;-77
2021/10/10 10:53:20;;;;;;;72.60;49.55;;;14.20;87.10;;;;;;5043739;28;20155;-83
2021/10/10 10:55:54;;;;;;;78.50;51.78;;;14.20;87.30;;;;;;5025557;28;20478;-83
2021/10/10 10:58:20;;;;;;;76.90;49.28;;;14.20;87.30;;;;;;5031358;28;20022;-84
2021/10/10 11:00:47;;;;;;;74.97;50.70;;;14.20;87.10;;;;;;5053700;27;20034;-84
2021/10/10 11:03:17;;;;;;;77.78;51.42;;;14.30;86.90;;;;;;5033081;28;20113;-84
2021/10/10 11:05:43;;;;;;;90.10;53.05;;;14.30;86.60;;;;;;5033458;28;20096;-84
2021/10/10 11:08:31;;;;;;;78.22;51.00;;;14.40;86.40;;;;;;5016699;28;20494;-84
2021/10/10 11:11:02;;;;;;;79.97;48.83;;;14.50;86.20;;;;;;5024299;28;20040;-84
2021/10/10 11:13:34;;;;;;;71.45;47.88;;;14.50;86.30;;;;;;5027105;28;20033;-76
2021/10/10 11:16:08;;;;;;;75.07;47.60;;;14.60;86.20;;;;;;5031180;28;20100;-76
2021/10/10 11:18:36;;;;;;;75.30;47.95;;;14.70;85.90;;;;;;5038579;28;20481;-77
2021/10/10 11:21:05;;;;;;;73.47;46.20;;;14.80;85.30;;;;;;5020464;28;20049;-77
2021/10/10 11:23:32;;;;;;;;;;;14.90;85.20;;;;;;5028476;28;20457;-76
2021/10/10 11:26:01;;;;;;;71.28;44.15;;;15.00;84.90;;;;;;5051537;28;19909;-76
2021/10/10 11:29:06;;;;;;;74.00;46.53;;;15.10;84.80;;;;;;5030531;28;20049;-77
2021/10/10 11:31:33;;;;;;;76.60;46.80;;;15.20;84.50;;;;;;5059799;28;20948;-76
2021/10/10 11:34:01;;;;;;;69.57;46.83;;;15.30;84.60;;;;;;5009267;28;20054;-84
2021/10/10 11:36:37;;;;;;;70.47;45.25;;;15.40;84.30;;;;;;5034313;28;20487;-84
2021/10/10 11:39:07;;;;;;;70.43;43.80;;;15.50;84.20;;;;;;5047121;28;20055;-85
2021/10/10 11:41:40;;;;;;;64.13;43.42;;;15.60;83.80;;;;;;5047821;27;20633;-84
2021/10/10 11:44:12;;;;;;;66.20;44.30;;;15.70;83.60;;;;;;5029842;28;20656;-85
2021/10/10 11:46:38;;;;;;;63.15;42.97;;;15.80;83.40;;;;;;5030265;28;20037;-85
2021/10/10 11:49:20;;;;;;;60.58;41.25;;;15.80;83.20;;;;;;5026790;28;20462;-84
2021/10/10 11:51:49;;;;;;;54.47;40.15;;;15.90;82.60;;;;;;5028786;28;20068;-86
2021/10/10 11:54:27;;;;;;;;;;;15.90;82.40;;;;;;5021657;28;20036;-85
2021/10/10 11:56:58;;;;;;;51.20;36.60;;;16.00;82.00;;;;;;5048629;28;19952;-85
2021/10/10 11:59:24;;;;;;;57.53;40.50;;;16.00;82.00;;;;;;5038007;28;20026;-84
2021/10/10 12:01:54;;;;;;;57.92;39.78;;;16.10;81.90;;;;;;5051553;28;20036;-85
2021/10/10 12:04:21;;;;;;;54.70;37.72;;;16.20;81.80;;;;;;5007841;28;20037;-84
2021/10/10 12:06:47;;;;;;;55.03;37.58;;;16.20;81.80;;;;;;5049361;28;20080;-86
2021/10/10 12:09:13;;;;;;;57.03;38.25;;;16.30;81.70;;;;;;5014995;28;20034;-85
2021/10/10 12:11:40;;;;;;;52.90;36.90;;;16.30;81.30;;;;;;5024946;28;20037;-86
2021/10/10 12:14:07;;;;;;;51.05;37.45;;;16.40;81.10;;;;;;5019610;28;20086;-84
2021/10/10 12:16:43;;;;;;;55.15;36.80;;;16.40;80.80;;;;;;5022924;28;20026;-84
2021/10/10 12:19:10;;;;;;;47.83;35.35;;;16.40;80.40;;;;;;5049547;28;20078;-85
2021/10/10 12:21:37;;;;;;;49.45;36.30;;;16.50;80.40;;;;;;5029697;27;20030;-86
2021/10/10 12:24:07;;;;;;;51.00;34.95;;;16.50;80.30;;;;;;5037582;28;20029;-86
2021/10/10 12:26:55;;;;;;;54.85;37.67;;;16.60;80.20;;;;;;5037756;27;20021;-86
2021/10/10 12:29:24;;;;;;;53.47;36.58;;;16.60;80.00;;;;;;5040841;28;20472;-86
2021/10/10 12:31:50;;;;;;;48.42;35.42;;;16.60;80.10;;;;;;5034252;28;20046;-86
2021/10/10 12:34:16;;;;;;;47.78;34.30;;;16.70;80.10;;;;;;5005305;28;20049;-85
2021/10/10 12:36:47;;;;;;;51.10;36.10;;;16.70;79.90;;;;;;5049375;28;20515;-84
2021/10/10 12:39:13;;;;;;;49.70;35.45;;;16.80;79.90;;;;;;5043219;27;20021;-85
2021/10/10 12:41:39;;;;;;;49.92;35.10;;;16.80;79.70;;;;;;5054396;27;20023;-84
2021/10/10 12:44:07;;;;;;;50.47;37.85;;;16.80;79.60;;;;;;5016094;27;20053;-84